Time;durP1;ratioP1;P1;durP2;ratioP2;P2;SDS_P1;SDS_P2;PMS_P1;PMS_P2;Temp;Humidity;BMP_temperature;BMP_pressure;BME280_temperature;BME280_humidity;BME280_pressure;Samples;Min_cycle;Max_cycle;Signal;HPM_P1;HPM_P2
2023/04/26 00:01:04;;;;;;;3.60;1.30;;;;;;;;;;4977350;28;20069;-88
2023/04/26 00:03:31;;;;;;;3.58;1.60;;;;;;;;;;4964746;28;20126;-88
2023/04/26 00:05:57;;;;;;;4.53;1.30;;;;;;;;;;4974814;28;20041;-89
2023/04/26 00:08:23;;;;;;;4.88;1.85;;;;;;;;;;4952426;28;20046;-89
2023/04/26 00:10:50;;;;;;;4.53;1.60;;;;;;;;;;4967628;28;20030;-89
2023/04/26 00:13:16;;;;;;;2.33;1.45;;;;;;;;;;4951664;28;20163;-88
2023/04/26 00:15:42;;;;;;;4.05;1.70;;;;;;;;;;4959217;28;20097;-88
2023/04/26 00:18:08;;;;;;;3.38;1.58;;;;;;;;;;4959070;28;20438;-88
2023/04/26 00:20:34;;;;;;;4.13;1.58;;;;;;;;;;4955916;28;20034;-89
2023/04/26 00:23:02;;;;;;;3.17;1.55;;;;;;;;;;4957632;28;20027;-89
2023/04/26 00:25:28;;;;;;;4.60;1.63;;;;;;;;;;4963270;28;20027;-89
2023/04/26 00:27:54;;;;;;;3.20;1.60;;;;;;;;;;4957598;28;20019;-89
2023/04/26 00:30:21;;;;;;;3.30;1.38;;;;;;;;;;4949089;28;20058;-89
2023/04/26 00:32:47;;;;;;;2.70;1.40;;;;;;;;;;4954143;28;20054;-88
2023/04/26 00:35:13;;;;;;;4.25;1.95;;;;;;;;;;4968280;28;20138;-89
2023/04/26 00:37:40;;;;;;;4.00;1.55;;;;;;;;;;4956027;28;20031;-89
2023/04/26 00:40:06;;;;;;;3.75;1.80;;;;;;;;;;4968536;28;20038;-88
2023/04/26 00:42:33;;;;;;;7.75;2.45;;;;;;;;;;4950853;28;20034;-88
2023/04/26 00:44:59;;;;;;;4.57;1.42;;;;;;;;;;4968002;28;20159;-88
2023/04/26 00:47:25;;;;;;;9.55;1.90;;;;;;;;;;4958569;28;20016;-88
2023/04/26 00:49:52;;;;;;;3.70;1.65;;;;;;;;;;4969529;28;20178;-88
2023/04/26 00:52:18;;;;;;;4.45;1.80;;;;;;;;;;4957225;28;20023;-88
2023/04/26 00:54:44;;;;;;;5.30;2.08;;;;;;;;;;4944959;28;20045;-89
2023/04/26 00:57:12;;;;;;;4.13;1.65;;;;;;;;;;4957568;28;20062;-89
2023/04/26 00:59:38;;;;;;;2.63;1.50;;;;;;;;;;4954679;28;20034;-87
2023/04/26 01:02:04;;;;;;;3.85;1.77;;;;;;;;;;4956394;28;20800;-89
2023/04/26 01:04:32;;;;;;;4.28;1.65;;;;;;;;;;4962961;28;20074;-88
2023/04/26 01:06:58;;;;;;;3.67;1.75;;;;;;;;;;4953897;28;20034;-88
2023/04/26 01:09:25;;;;;;;3.63;1.80;;;;;;;;;;4960015;28;20406;-88
2023/04/26 01:11:52;;;;;;;5.43;2.10;;;;;;;;;;4953299;28;20026;-89
2023/04/26 01:14:18;;;;;;;6.20;1.77;;;;;;;;;;4946592;28;20128;-88
2023/04/26 01:16:47;;;;;;;4.28;1.80;;;;;;;;;;4953976;28;20033;-89
2023/04/26 01:19:14;;;;;;;5.15;1.60;;;;;;;;;;4954453;28;20466;-88
2023/04/26 01:21:40;;;;;;;3.28;2.08;;;;;;;;;;4967240;28;20050;-88
2023/04/26 01:24:08;;;;;;;4.93;1.90;;;;;;;;;;4950322;28;20474;-89
2023/04/26 01:26:36;;;;;;;5.00;1.80;;;;;;;;;;4952414;28;20330;-90
2023/04/26 01:29:12;;;;;;;5.60;1.80;;;;;;;;;;4961045;28;20037;-90
2023/04/26 01:31:39;;;;;;;5.25;1.83;;;;;;;;;;4951024;28;20050;-89
2023/04/26 01:34:05;;;;;;;6.00;1.95;;;;;;;;;;4957062;28;20066;-88
2023/04/26 01:36:31;;;;;;;2.80;1.73;;;;;;;;;;4964535;28;20034;-87
2023/04/26 01:38:57;;;;;;;6.80;1.60;;;;;;;;;;4951169;28;20090;-88
2023/04/26 01:41:24;;;;;;;4.50;1.80;;;;;;;;;;4946544;28;20540;-89
2023/04/26 01:43:50;;;;;;;3.47;2.05;;;;;;;;;;4952979;28;20034;-89
2023/04/26 01:46:16;;;;;;;5.28;1.90;;;;;;;;;;4948989;28;20049;-89
2023/04/26 01:48:42;;;;;;;3.97;1.83;;;;;;;;;;4951590;28;20679;-89
2023/04/26 01:51:09;;;;;;;6.20;2.13;;;;;;;;;;4945876;28;20030;-88
2023/04/26 01:53:36;;;;;;;4.07;1.40;;;;;;;;;;4953571;28;20054;-89
2023/04/26 01:56:02;;;;;;;8.85;2.85;;;;;;;;;;4961581;28;20053;-89
2023/04/26 01:58:29;;;;;;;7.03;1.67;;;;;;;;;;4958042;28;20038;-88
2023/04/26 02:00:56;;;;;;;5.25;1.90;;;;;;;;;;4967778;28;20061;-88
2023/04/26 02:03:22;;;;;;;4.38;2.10;;;;;;;;;;4947035;28;20859;-88
2023/04/26 02:05:49;;;;;;;5.80;1.77;;;;;;;;;;4950604;28;20428;-88
2023/04/26 02:08:15;;;;;;;5.80;2.00;;;;;;;;;;4940764;28;20082;-88
2023/04/26 02:10:41;;;;;;;7.90;2.42;;;;;;;;;;4950526;28;20027;-89
2023/04/26 02:13:08;;;;;;;4.30;1.90;;;;;;;;;;4951177;28;20053;-88
2023/04/26 02:15:34;;;;;;;5.40;2.10;;;;;;;;;;4961257;28;20030;-87
2023/04/26 02:18:01;;;;;;;7.97;2.78;;;;;;;;;;4956537;28;20089;-89
2023/04/26 02:20:27;;;;;;;4.57;1.85;;;;;;;;;;4966121;28;20085;-90
2023/04/26 02:22:54;;;;;;;5.65;2.08;;;;;;;;;;4955856;28;20549;-90
2023/04/26 02:25:20;;;;;;;4.40;2.10;;;;;;;;;;4957124;28;20028;-89
2023/04/26 02:27:46;;;;;;;9.98;3.47;;;;;;;;;;4954960;28;20034;-89
2023/04/26 02:30:13;;;;;;;7.07;1.80;;;;;;;;;;4961584;28;20084;-89
2023/04/26 02:32:40;;;;;;;6.43;2.15;;;;;;;;;;4953879;28;20298;-89
2023/04/26 02:35:08;;;;;;;4.05;2.22;;;;;;;;;;4966990;28;20054;-89
2023/04/26 02:37:34;;;;;;;7.90;2.38;;;;;;;;;;4963692;28;20097;-89
2023/04/26 02:40:01;;;;;;;4.97;2.00;;;;;;;;;;4973455;28;20054;-88
2023/04/26 02:42:27;;;;;;;5.35;2.10;;;;;;;;;;4971577;28;20027;-89
2023/04/26 02:44:53;;;;;;;5.55;1.85;;;;;;;;;;4973573;28;20058;-90
2023/04/26 02:47:19;;;;;;;6.72;2.35;;;;;;;;;;4965648;28;20019;-88
2023/04/26 02:49:46;;;;;;;7.15;2.63;;;;;;;;;;4958845;28;20528;-88
2023/04/26 02:52:12;;;;;;;7.47;2.10;;;;;;;;;;4966133;28;20031;-89
2023/04/26 02:54:38;;;;;;;6.10;2.17;;;;;;;;;;4962023;28;20512;-89
2023/04/26 02:57:04;;;;;;;7.60;2.03;;;;;;;;;;4962565;28;20031;-89
2023/04/26 02:59:31;;;;;;;4.78;2.35;;;;;;;;;;4952145;28;20031;-88
2023/04/26 03:01:57;;;;;;;5.97;2.42;;;;;;;;;;4961398;28;20031;-87
2023/04/26 03:04:23;;;;;;;5.18;2.30;;;;;;;;;;4946813;28;20030;-88
2023/04/26 03:06:50;;;;;;;7.15;2.10;;;;;;;;;;4958580;28;20023;-89
2023/04/26 03:09:16;;;;;;;7.38;2.38;;;;;;;;;;4943621;28;20043;-88
2023/04/26 03:11:42;;;;;;;4.55;2.15;;;;;;;;;;4951882;28;20023;-88
2023/04/26 03:14:09;;;;;;;5.88;2.10;;;;;;;;;;4949591;28;20026;-89
2023/04/26 03:16:41;;;;;;;5.38;2.00;;;;;;;;;;4964848;28;20489;-89
2023/04/26 03:19:07;;;;;;;7.45;2.10;;;;;;;;;;4951910;28;20147;-88
2023/04/26 03:21:33;;;;;;;6.97;2.20;;;;;;;;;;4949864;28;20050;-88
2023/04/26 03:24:00;;;;;;;7.38;2.55;;;;;;;;;;4959931;28;20174;-88
2023/04/26 03:26:26;;;;;;;7.43;2.60;;;;;;;;;;4969278;28;20037;-89
2023/04/26 03:28:52;;;;;;;5.32;1.83;;;;;;;;;;4954960;28;20158;-89
2023/04/26 03:31:20;;;;;;;9.05;2.60;;;;;;;;;;4952081;28;20023;-88
2023/04/26 03:33:46;;;;;;;6.32;2.70;;;;;;;;;;4948805;28;20027;-88
2023/04/26 03:36:12;;;;;;;7.00;2.47;;;;;;;;;;4959161;28;20023;-88
2023/04/26 03:38:39;;;;;;;9.88;2.40;;;;;;;;;;4956462;28;20027;-87
2023/04/26 03:41:05;;;;;;;5.95;2.70;;;;;;;;;;4944083;28;20022;-90
2023/04/26 03:43:31;;;;;;;8.30;2.83;;;;;;;;;;4958188;28;20556;-88
2023/04/26 03:45:57;;;;;;;9.73;2.70;;;;;;;;;;4941848;28;20045;-89
2023/04/26 03:48:24;;;;;;;8.55;2.83;;;;;;;;;;4960851;28;20031;-88
2023/04/26 03:50:50;;;;;;;9.18;3.25;;;;;;;;;;4949728;28;20477;-89
2023/04/26 03:53:16;;;;;;;8.70;2.78;;;;;;;;;;4955577;28;20054;-88
2023/04/26 03:55:43;;;;;;;10.13;3.13;;;;;;;;;;4942545;28;20037;-87
2023/04/26 03:58:09;;;;;;;8.13;2.53;;;;;;;;;;4960050;28;20094;-89
2023/04/26 04:00:39;;;;;;;8.23;2.67;;;;;;;;;;4956623;28;20031;-88
2023/04/26 04:03:06;;;;;;;7.95;3.17;;;;;;;;;;4947275;28;20043;-89
2023/04/26 04:05:32;;;;;;;8.55;2.90;;;;;;;;;;4946198;28;20034;-89
2023/04/26 04:07:59;;;;;;;11.25;3.15;;;;;;;;;;4956186;28;20043;-88
2023/04/26 04:10:26;;;;;;;11.25;3.42;;;;;;;;;;4933496;28;20041;-89
2023/04/26 04:12:52;;;;;;;11.93;3.70;;;;;;;;;;4956788;28;20031;-88
2023/04/26 04:15:19;;;;;;;7.35;3.13;;;;;;;;;;4965283;28;20101;-89
2023/04/26 04:17:46;;;;;;;5.43;2.30;;;;;;;;;;4964548;28;20041;-89
2023/04/26 04:20:13;;;;;;;12.32;2.97;;;;;;;;;;4959131;28;20038;-89
2023/04/26 04:22:39;;;;;;;8.43;3.55;;;;;;;;;;4963391;28;20150;-89
2023/04/26 04:25:12;;;;;;;8.13;3.17;;;;;;;;;;4957234;28;20058;-91
2023/04/26 04:27:41;;;;;;;8.65;3.03;;;;;;;;;;4964756;28;20032;-88
2023/04/26 04:30:07;;;;;;;14.70;3.70;;;;;;;;;;4970028;28;20023;-88
2023/04/26 04:32:34;;;;;;;9.20;3.28;;;;;;;;;;4943551;28;20031;-88
2023/04/26 04:35:00;;;;;;;6.75;2.92;;;;;;;;;;4946152;28;20338;-89
2023/04/26 04:37:27;;;;;;;9.27;3.40;;;;;;;;;;4961482;28;20064;-89
2023/04/26 04:39:54;;;;;;;11.50;3.00;;;;;;;;;;4965758;28;20478;-89
2023/04/26 04:42:21;;;;;;;9.30;3.03;;;;;;;;;;4961945;28;20078;-88
2023/04/26 04:44:48;;;;;;;10.70;4.07;;;;;;;;;;4964594;28;20053;-89
2023/04/26 04:47:16;;;;;;;8.88;3.42;;;;;;;;;;4952360;28;20481;-89
2023/04/26 04:49:42;;;;;;;14.23;3.70;;;;;;;;;;4955999;28;20034;-88
2023/04/26 04:52:08;;;;;;;14.75;3.50;;;;;;;;;;4958078;28;20019;-89
2023/04/26 04:54:35;;;;;;;9.90;3.85;;;;;;;;;;4963605;28;20537;-88
2023/04/26 04:57:02;;;;;;;8.15;3.20;;;;;;;;;;4955690;28;20069;-88
2023/04/26 04:59:29;;;;;;;12.15;4.22;;;;;;;;;;4930320;28;20023;-89
2023/04/26 05:01:55;;;;;;;10.93;3.42;;;;;;;;;;4967163;28;20030;-89
2023/04/26 05:04:22;;;;;;;21.45;4.72;;;;;;;;;;4951887;28;20042;-91
2023/04/26 05:06:52;;;;;;;8.43;3.47;;;;;;;;;;4960832;28;20135;-91
2023/04/26 05:09:18;;;;;;;9.93;3.20;;;;;;;;;;4951845;28;20031;-91
2023/04/26 05:11:45;;;;;;;12.55;3.20;;;;;;;;;;4960777;28;20023;-92
2023/04/26 05:14:11;;;;;;;14.05;3.92;;;;;;;;;;4953109;28;20030;-91
2023/04/26 05:16:37;;;;;;;12.43;3.75;;;;;;;;;;4958659;28;20129;-93
2023/04/26 05:19:04;;;;;;;13.55;3.45;;;;;;;;;;4953086;28;20077;-94
2023/04/26 05:21:31;;;;;;;13.82;3.60;;;;;;;;;;4971176;28;20033;-95
2023/04/26 05:23:57;;;;;;;8.07;3.30;;;;;;;;;;4965800;28;20034;-95
2023/04/26 05:26:23;;;;;;;8.70;3.72;;;;;;;;;;4958756;28;20023;-94
2023/04/26 05:28:49;;;;;;;6.65;3.00;;;;;;;;;;4970838;28;20058;-94
2023/04/26 05:31:16;;;;;;;9.20;3.38;;;;;;;;;;4971275;28;20043;-96
2023/04/26 05:33:42;;;;;;;14.23;4.20;;;;;;;;;;4966966;28;20023;-96
2023/04/26 05:36:08;;;;;;;7.32;2.55;;;;;;;;;;4966084;28;20030;-96
2023/04/26 05:38:36;;;;;;;9.50;3.45;;;;;;;;;;4965682;28;20023;-96
2023/04/26 05:41:03;;;;;;;10.13;2.78;;;;;;;;;;4975066;28;20026;-94
2023/04/26 05:43:29;;;;;;;9.52;3.05;;;;;;;;;;4965093;28;20039;-95
2023/04/26 05:45:56;;;;;;;7.30;2.92;;;;;;;;;;4974889;28;20034;-95
2023/04/26 05:48:23;;;;;;;7.63;2.45;;;;;;;;;;4963329;28;20030;-95
2023/04/26 05:50:49;;;;;;;6.97;2.40;;;;;;;;;;4967085;28;20274;-94
2023/04/26 05:53:16;;;;;;;8.23;2.70;;;;;;;;;;4965573;28;20125;-95
2023/04/26 05:55:42;;;;;;;12.45;2.45;;;;;;;;;;4961214;28;20489;-94
2023/04/26 05:58:09;;;;;;;8.00;2.70;;;;;;;;;;4959020;28;20019;-94
2023/04/26 06:00:36;;;;;;;8.80;3.00;;;;;;;;;;4965585;28;20027;-94
2023/04/26 06:03:02;;;;;;;17.05;3.05;;;;;;;;;;4954117;28;20027;-95
2023/04/26 06:05:28;;;;;;;8.93;2.85;;;;;;;;;;4965323;28;20039;-94
2023/04/26 06:07:54;;;;;;;8.90;2.63;;;;;;;;;;4958952;28;20038;-94
2023/04/26 06:10:21;;;;;;;6.40;2.20;;;;;;;;;;4956796;28;20019;-95
2023/04/26 06:12:47;;;;;;;10.13;2.40;;;;;;;;;;4961556;28;20053;-96
2023/04/26 06:15:13;;;;;;;7.82;2.60;;;;;;;;;;4967541;28;20027;-93
2023/04/26 06:17:43;;;;;;;11.35;2.05;;;;;;;;;;4959977;28;20049;-95
2023/04/26 06:20:09;;;;;;;9.88;2.40;;;;;;;;;;4962735;28;20078;-94
2023/04/26 06:22:36;;;;;;;7.43;2.33;;;;;;;;;;4967598;28;20026;-95
2023/04/26 06:25:04;;;;;;;5.75;2.53;;;;;;;;;;4964094;28;20039;-94
2023/04/26 06:27:30;;;;;;;3.80;1.65;;;;;;;;;;4970933;28;20034;-95
2023/04/26 06:29:56;;;;;;;12.00;2.38;;;;;;;;;;4984519;28;20129;-96
2023/04/26 06:32:22;;;;;;;4.10;1.75;;;;;;;;;;4976845;28;20118;-96
2023/04/26 06:34:49;;;;;;;6.50;1.65;;;;;;;;;;4972699;28;20023;-96
2023/04/26 06:37:15;;;;;;;6.80;1.92;;;;;;;;;;4978146;28;20119;-96
2023/04/26 06:39:41;;;;;;;6.80;1.98;;;;;;;;;;4975953;28;20030;-96
2023/04/26 06:42:08;;;;;;;6.45;1.90;;;;;;;;;;4979956;28;20027;-96
2023/04/26 06:44:34;;;;;;;5.45;1.80;;;;;;;;;;4960059;28;20772;-96
2023/04/26 06:47:00;;;;;;;4.53;1.65;;;;;;;;;;4955160;28;20028;-95
2023/04/26 06:51:55;;;;;;;5.00;1.70;;;;;;;;;;5021873;23;20137;-93
2023/04/26 06:54:21;;;;;;;5.95;1.98;;;;;;;;;;5012452;28;20037;-94
2023/04/26 06:56:47;;;;;;;7.32;1.92;;;;;;;;;;5001817;28;20022;-92
2023/04/26 06:59:13;;;;;;;7.68;2.20;;;;;;;;;;4998260;28;20031;-92
2023/04/26 07:01:43;;;;;;;15.35;2.50;;;;;;;;;;4997804;28;20025;-92
2023/04/26 07:04:09;;;;;;;5.97;2.45;;;;;;;;;;4997913;28;20069;-93
2023/04/26 07:06:35;;;;;;;12.32;3.03;;;;;;;;;;4996017;28;20114;-93
2023/04/26 07:09:02;;;;;;;9.88;2.53;;;;;;;;;;5002566;28;20022;-94
2023/04/26 07:11:28;;;;;;;6.03;2.38;;;;;;;;;;4999541;28;20030;-96
2023/04/26 07:13:55;;;;;;;4.38;1.83;;;;;;;;;;4999368;28;20033;-94
2023/04/26 07:16:21;;;;;;;10.65;2.42;;;;;;;;;;4999349;28;20076;-95
2023/04/26 07:18:48;;;;;;;3.72;2.17;;;;;;;;;;4999306;28;20084;-95
2023/04/26 07:21:15;;;;;;;6.60;2.08;;;;;;;;;;4998222;28;20125;-94
2023/04/26 07:23:43;;;;;;;6.90;2.30;;;;;;;;;;4999058;28;20060;-93
2023/04/26 07:26:13;;;;;;;6.43;2.25;;;;;;;;;;4999062;28;20472;-94
2023/04/26 07:28:39;;;;;;;6.28;2.42;;;;;;;;;;4999124;28;20026;-93
2023/04/26 07:31:05;;;;;;;10.55;2.85;;;;;;;;;;4995565;28;20109;-94
2023/04/26 07:33:31;;;;;;;3.78;2.08;;;;;;;;;;4995803;28;20062;-94
2023/04/26 07:36:01;;;;;;;7.43;2.58;;;;;;;;;;4996173;28;20451;-94
2023/04/26 07:38:27;;;;;;;4.00;1.80;;;;;;;;;;5007236;28;20033;-93
2023/04/26 07:40:55;;;;;;;7.15;2.20;;;;;;;;;;5015099;28;20084;-93
2023/04/26 07:43:23;;;;;;;6.18;2.13;;;;;;;;;;5014923;28;20026;-95
2023/04/26 07:45:59;;;;;;;5.15;1.73;;;;;;;;;;5016131;28;20491;-93
2023/04/26 07:48:25;;;;;;;6.97;2.33;;;;;;;;;;4979574;28;20072;-94
2023/04/26 07:50:51;;;;;;;13.30;3.60;;;;;;;;;;4979193;28;20057;-94
2023/04/26 07:53:17;;;;;;;9.25;2.30;;;;;;;;;;4979637;28;20431;-96
2023/04/26 07:55:45;;;;;;;8.10;2.72;;;;;;;;;;4979803;28;20424;-94
2023/04/26 07:58:13;;;;;;;11.82;2.75;;;;;;;;;;4979418;28;20026;-94
2023/04/26 08:00:42;;;;;;;7.95;2.25;;;;;;;;;;4979258;28;20027;-95
2023/04/26 08:03:09;;;;;;;7.88;2.30;;;;;;;;;;4979147;28;20058;-95
2023/04/26 08:05:35;;;;;;;7.00;2.05;;;;;;;;;;4979301;28;20033;-95
2023/04/26 08:08:02;;;;;;;5.93;2.30;;;;;;;;;;4979457;28;20418;-95
2023/04/26 08:10:28;;;;;;;6.72;1.48;;;;;;;;;;4979396;28;20073;-95
2023/04/26 08:12:56;;;;;;;6.57;2.40;;;;;;;;;;4980014;28;20057;-96
2023/04/26 08:15:24;;;;;;;8.20;2.65;;;;;;;;;;4979317;28;20433;-95
2023/04/26 08:17:53;;;;;;;8.45;2.47;;;;;;;;;;4979990;28;20029;-96
2023/04/26 08:20:19;;;;;;;8.13;2.08;;;;;;;;;;4978994;28;20114;-94
2023/04/26 08:22:46;;;;;;;6.38;2.25;;;;;;;;;;4980824;28;20400;-95
2023/04/26 08:25:15;;;;;;;7.72;2.50;;;;;;;;;;4979264;28;20109;-96
2023/04/26 08:27:43;;;;;;;9.70;2.38;;;;;;;;;;4978916;28;20026;-95
2023/04/26 08:30:09;;;;;;;5.97;2.25;;;;;;;;;;4979119;28;20019;-95
2023/04/26 08:32:36;;;;;;;7.90;2.00;;;;;;;;;;4978371;28;20027;-96
2023/04/26 08:35:02;;;;;;;6.80;2.00;;;;;;;;;;4978873;28;20049;-95
2023/04/26 08:37:28;;;;;;;9.05;1.98;;;;;;;;;;4979064;28;20518;-94
2023/04/26 08:39:54;;;;;;;7.43;2.13;;;;;;;;;;4978834;28;20026;-96
2023/04/26 08:42:24;;;;;;;8.32;2.20;;;;;;;;;;4978954;28;20077;-96
2023/04/26 08:44:53;;;;;;;3.83;1.75;;;;;;;;;;4978892;28;20081;-95
2023/04/26 08:47:34;;;;;;;6.47;1.80;;;;;;;;;;4978462;28;20038;-96
2023/04/26 08:50:03;;;;;;;8.57;2.40;;;;;;;;;;4978636;28;20134;-95
2023/04/26 08:52:33;;;;;;;7.82;2.28;;;;;;;;;;4978754;28;20038;-95
2023/04/26 08:55:03;;;;;;;8.13;2.22;;;;;;;;;;4978420;28;20164;-96
2023/04/26 08:57:32;;;;;;;14.88;2.42;;;;;;;;;;4978572;28;20037;-95
2023/04/26 09:00:00;;;;;;;10.80;2.60;;;;;;;;;;4978448;28;20053;-95
2023/04/26 09:02:26;;;;;;;12.10;2.70;;;;;;;;;;4978340;28;20026;-95
2023/04/26 09:04:54;;;;;;;13.55;2.20;;;;;;;;;;4978523;28;20080;-95
2023/04/26 09:07:22;;;;;;;9.55;2.42;;;;;;;;;;4978322;28;20547;-95
2023/04/26 09:09:51;;;;;;;6.70;2.10;;;;;;;;;;4978265;28;20403;-94
2023/04/26 09:12:24;;;;;;;13.18;2.45;;;;;;;;;;4977990;28;20026;-94
2023/04/26 09:14:52;;;;;;;6.97;1.83;;;;;;;;;;4978372;28;20023;-94
2023/04/26 09:17:33;;;;;;;10.88;1.85;;;;;;;;;;4977971;28;20030;-95
2023/04/26 09:20:00;;;;;;;12.23;2.80;;;;;;;;;;4979135;28;20022;-95
2023/04/26 09:22:36;;;;;;;13.23;2.70;;;;;;;;;;4978389;28;20026;-95
2023/04/26 09:25:06;;;;;;;10.60;2.00;;;;;;;;;;4977973;28;20034;-94
2023/04/26 09:27:46;;;;;;;11.63;2.20;;;;;;;;;;4978425;28;20089;-95
2023/04/26 09:30:17;;;;;;;8.55;2.30;;;;;;;;;;4978950;28;20376;-95
2023/04/26 09:32:45;;;;;;;13.25;2.97;;;;;;;;;;4978024;28;20018;-95
2023/04/26 09:35:24;;;;;;;11.63;2.90;;;;;;;;;;4977960;28;20496;-94
2023/04/26 09:38:06;;;;;;;17.25;2.97;;;;;;;;;;4978119;28;20026;-95
2023/04/26 09:40:36;;;;;;;6.35;1.77;;;;;;;;;;4977869;28;20080;-92
2023/04/26 09:43:05;;;;;;;10.13;2.15;;;;;;;;;;4977709;28;20493;-92
2023/04/26 09:45:32;;;;;;;11.55;2.25;;;;;;;;;;4982219;28;20084;-94
2023/04/26 09:48:17;;;;;;;8.60;1.90;;;;;;;;;;4981687;28;20023;-94
2023/04/26 09:50:45;;;;;;;165.98;18.50;;;;;;;;;;4981402;28;20078;-93
2023/04/26 09:53:14;;;;;;;13.27;2.47;;;;;;;;;;4982043;28;20084;-94
2023/04/26 09:55:40;;;;;;;5.93;1.90;;;;;;;;;;4981566;28;20050;-93
2023/04/26 09:58:15;;;;;;;6.75;1.73;;;;;;;;;;4981663;28;20113;-94
2023/04/26 10:00:45;;;;;;;35.15;5.30;;;;;;;;;;4981511;28;20019;-94
2023/04/26 10:03:26;;;;;;;86.30;12.02;;;;;;;;;;4981772;28;20054;-94
2023/04/26 10:05:56;;;;;;;27.63;4.13;;;;;;;;;;4981949;28;20022;-95
2023/04/26 10:08:25;;;;;;;13.35;2.83;;;;;;;;;;4981518;28;20054;-93
2023/04/26 10:11:07;;;;;;;5.18;2.13;;;;;;;;;;4982508;28;20030;-95
2023/04/26 10:13:35;;;;;;;4.60;1.98;;;;;;;;;;4982562;28;20029;-94
2023/04/26 10:16:19;;;;;;;7.38;1.80;;;;;;;;;;4982287;28;20503;-96
2023/04/26 10:18:45;;;;;;;6.20;2.10;;;;;;;;;;4982555;28;20085;-96
2023/04/26 10:21:17;;;;;;;7.03;1.90;;;;;;;;;;4982524;28;20465;-95
2023/04/26 10:23:46;;;;;;;8.95;2.13;;;;;;;;;;4981971;28;20124;-96
2023/04/26 10:26:31;;;;;;;11.82;2.83;;;;;;;;;;4982066;28;20022;-95
2023/04/26 10:28:57;;;;;;;7.13;2.40;;;;;;;;;;4981239;28;20065;-94
2023/04/26 10:31:26;;;;;;;9.38;3.22;;;;;;;;;;4981406;28;20413;-94
2023/04/26 10:34:14;;;;;;;11.75;4.32;;;;;;;;;;4981937;28;20026;-95
2023/04/26 10:39:47;;;;;;;8.48;2.90;;;;;;;;;;4988702;28;20362;-94
2023/04/26 10:42:26;;;;;;;17.52;6.07;;;;;;;;;;4981485;28;20162;-95
2023/04/26 10:44:55;;;;;;;11.82;4.38;;;;;;;;;;4981969;28;20031;-94
2023/04/26 10:47:25;;;;;;;9.15;3.33;;;;;;;;;;4981680;28;20037;-96
2023/04/26 10:49:58;;;;;;;7.05;2.95;;;;;;;;;;4982446;28;20028;-94
2023/04/26 10:52:27;;;;;;;17.27;6.70;;;;;;;;;;4982215;28;20045;-95
2023/04/26 10:54:56;;;;;;;13.23;3.22;;;;;;;;;;4981306;28;20057;-95
2023/04/26 10:57:45;;;;;;;10.35;2.58;;;;;;;;;;4981801;28;20038;-95
2023/04/26 11:00:24;;;;;;;6.43;2.10;;;;;;;;;;4981610;28;20034;-95
2023/04/26 11:02:57;;;;;;;9.60;2.20;;;;;;;;;;4981755;28;20365;-95
2023/04/26 11:06:04;;;;;;;12.02;2.33;;;;;;;;;;4981170;28;20022;-96
2023/04/26 11:08:36;;;;;;;12.43;2.72;;;;;;;;;;4942050;29;20035;-96
2023/04/26 11:11:05;;;;;;;6.57;2.40;;;;;;;;;;4941433;29;20030;-94
2023/04/26 11:13:52;;;;;;;14.38;2.58;;;;;;;;;;4962872;28;20034;-95
2023/04/26 11:16:18;;;;;;;11.25;3.63;;;;;;;;;;4980181;28;20026;-94
2023/04/26 11:18:47;;;;;;;14.32;2.80;;;;;;;;;;4980197;28;20029;-95
2023/04/26 11:21:18;;;;;;;15.10;2.20;;;;;;;;;;4980036;28;20057;-94
2023/04/26 11:23:55;;;;;;;7.83;2.23;;;;;;;;;;4980234;28;20026;-95
2023/04/26 11:26:24;;;;;;;11.45;2.60;;;;;;;;;;4980015;28;20738;-95
2023/04/26 11:28:58;;;;;;;12.50;2.53;;;;;;;;;;4979682;28;20036;-93
2023/04/26 11:31:31;;;;;;;8.55;1.85;;;;;;;;;;4979673;28;20026;-95
2023/04/26 11:34:07;;;;;;;10.68;2.83;;;;;;;;;;4980545;28;20053;-94
2023/04/26 11:36:36;;;;;;;11.05;2.50;;;;;;;;;;4979725;28;20126;-95
2023/04/26 11:39:05;;;;;;;9.00;2.05;;;;;;;;;;4980161;28;20030;-94
2023/04/26 11:41:39;;;;;;;9.10;2.30;;;;;;;;;;4979943;28;20033;-94
2023/04/26 11:44:05;;;;;;;12.05;2.42;;;;;;;;;;4979583;28;20161;-95
2023/04/26 11:46:34;;;;;;;11.00;2.65;;;;;;;;;;4979583;28;20022;-95
2023/04/26 11:49:17;;;;;;;10.07;2.83;;;;;;;;;;4979555;28;20081;-96
2023/04/26 11:51:44;;;;;;;10.07;2.47;;;;;;;;;;4976892;28;20050;-94
2023/04/26 11:54:18;;;;;;;8.32;2.83;;;;;;;;;;4979413;28;20042;-94
2023/04/26 11:56:47;;;;;;;9.70;3.03;;;;;;;;;;4979261;28;20031;-95
2023/04/26 11:59:25;;;;;;;9.40;2.15;;;;;;;;;;4979492;28;20027;-94
2023/04/26 12:02:06;;;;;;;10.13;1.98;;;;;;;;;;4979449;28;20049;-96
2023/04/26 12:04:36;;;;;;;11.73;2.13;;;;;;;;;;4980063;28;20117;-95
2023/04/26 12:07:07;;;;;;;11.25;3.08;;;;;;;;;;4978551;28;20485;-95
2023/04/26 12:09:49;;;;;;;7.97;2.30;;;;;;;;;;4979409;28;20022;-95
2023/04/26 12:12:15;;;;;;;;;;;;;;;;;;4979356;28;20068;-94
2023/04/26 12:14:48;;;;;;;10.60;2.45;;;;;;;;;;4979120;28;19910;-96
2023/04/26 12:17:35;;;;;;;11.20;2.55;;;;;;;;;;4979374;28;20033;-95
2023/04/26 12:20:09;;;;;;;10.05;2.28;;;;;;;;;;4978876;28;20121;-94
2023/04/26 12:22:35;;;;;;;8.60;2.38;;;;;;;;;;4979303;28;20026;-95
2023/04/26 12:25:09;;;;;;;10.70;2.50;;;;;;;;;;4979013;28;20396;-95
2023/04/26 12:27:38;;;;;;;8.85;2.10;;;;;;;;;;4978811;28;20523;-95
2023/04/26 12:30:07;;;;;;;6.97;2.45;;;;;;;;;;4978893;28;20049;-94
2023/04/26 12:32:36;;;;;;;7.38;2.95;;;;;;;;;;4978925;28;20038;-95
2023/04/26 12:35:05;;;;;;;8.85;2.40;;;;;;;;;;4978623;28;20498;-95
2023/04/26 12:37:46;;;;;;;6.30;1.98;;;;;;;;;;4978787;28;20381;-94
2023/04/26 12:40:18;;;;;;;10.10;2.58;;;;;;;;;;4979276;28;20081;-95
2023/04/26 12:42:44;;;;;;;;;;;;;;;;;;4979117;28;20069;-94
2023/04/26 12:45:19;;;;;;;8.32;2.67;;;;;;;;;;4978761;28;19910;-95
2023/04/26 12:47:47;;;;;;;22.15;3.53;;;;;;;;;;4978689;28;20019;-94
2023/04/26 12:50:16;;;;;;;19.48;3.53;;;;;;;;;;4985432;28;20397;-95
2023/04/26 12:52:46;;;;;;;7.20;2.72;;;;;;;;;;4978609;28;20408;-95
2023/04/26 12:55:15;;;;;;;10.77;3.30;;;;;;;;;;4978615;28;20036;-95
2023/04/26 12:57:49;;;;;;;11.48;3.20;;;;;;;;;;4978412;28;20382;-94
2023/04/26 13:00:20;;;;;;;9.75;2.63;;;;;;;;;;4979092;28;20026;-94
2023/04/26 13:02:46;;;;;;;14.37;3.17;;;;;;;;;;4978550;28;20030;-94
2023/04/26 13:05:27;;;;;;;47.97;5.50;;;;;;;;;;4978210;28;20276;-95
2023/04/26 13:08:00;;;;;;;33.83;5.50;;;;;;;;;;4978666;28;20022;-94
2023/04/26 13:10:27;;;;;;;14.90;3.28;;;;;;;;;;4975125;28;20073;-95
2023/04/26 13:12:53;;;;;;;15.45;3.47;;;;;;;;;;4976315;28;20029;-94
2023/04/26 13:15:20;;;;;;;8.02;1.98;;;;;;;;;;4978172;28;20027;-95
2023/04/26 13:17:46;;;;;;;11.88;3.00;;;;;;;;;;4977838;28;20041;-93
2023/04/26 13:20:22;;;;;;;9.63;2.78;;;;;;;;;;4978001;28;20076;-94
2023/04/26 13:22:50;;;;;;;11.05;3.33;;;;;;;;;;4978835;28;20464;-94
2023/04/26 13:25:17;;;;;;;12.13;2.53;;;;;;;;;;4977850;28;20026;-95
2023/04/26 13:27:46;;;;;;;10.23;2.75;;;;;;;;;;4978043;28;20057;-94
2023/04/26 13:30:27;;;;;;;9.15;2.35;;;;;;;;;;4978239;28;20018;-94
2023/04/26 13:32:56;;;;;;;8.75;2.58;;;;;;;;;;4978157;28;20025;-93
2023/04/26 13:35:25;;;;;;;10.27;2.63;;;;;;;;;;4978146;28;20385;-95
2023/04/26 13:38:06;;;;;;;6.35;2.33;;;;;;;;;;4978203;28;20400;-93
2023/04/26 13:40:47;;;;;;;11.20;2.60;;;;;;;;;;4978454;28;20537;-95
2023/04/26 13:43:17;;;;;;;8.80;2.28;;;;;;;;;;4977935;28;20022;-94
2023/04/26 13:46:05;;;;;;;13.70;2.95;;;;;;;;;;4978192;28;20029;-95
2023/04/26 13:48:40;;;;;;;7.50;2.67;;;;;;;;;;4978616;28;20037;-94
2023/04/26 13:51:06;;;;;;;7.70;2.30;;;;;;;;;;4987995;28;20034;-95
2023/04/26 13:53:35;;;;;;;13.82;2.75;;;;;;;;;;4997392;28;20030;-94
2023/04/26 13:56:07;;;;;;;11.68;2.90;;;;;;;;;;4997462;28;20030;-95
2023/04/26 13:58:35;;;;;;;10.00;2.38;;;;;;;;;;4997312;28;20030;-94
2023/04/26 14:01:04;;;;;;;10.10;2.38;;;;;;;;;;4997230;28;20030;-94
2023/04/26 14:03:38;;;;;;;18.20;3.10;;;;;;;;;;4997404;28;20040;-94
2023/04/26 14:06:08;;;;;;;14.85;3.47;;;;;;;;;;4997118;28;20052;-94
2023/04/26 14:08:36;;;;;;;14.90;3.13;;;;;;;;;;4997292;28;20539;-94
2023/04/26 14:11:05;;;;;;;13.38;2.97;;;;;;;;;;4997658;28;20060;-94
2023/04/26 14:13:39;;;;;;;18.02;3.08;;;;;;;;;;4998737;28;20041;-94
2023/04/26 14:16:07;;;;;;;9.88;2.80;;;;;;;;;;4998093;28;20053;-94
2023/04/26 14:18:36;;;;;;;10.32;2.90;;;;;;;;;;4998333;28;20036;-93
2023/04/26 14:21:15;;;;;;;10.80;2.33;;;;;;;;;;4998323;28;20033;-94
2023/04/26 14:23:50;;;;;;;11.07;3.00;;;;;;;;;;4998118;28;20049;-94
2023/04/26 14:26:17;;;;;;;8.63;2.70;;;;;;;;;;4998100;28;20026;-94
2023/04/26 14:28:46;;;;;;;10.75;2.40;;;;;;;;;;4998132;28;20022;-95
2023/04/26 14:31:17;;;;;;;15.13;2.90;;;;;;;;;;5001033;28;20030;-95
2023/04/26 14:33:45;;;;;;;22.05;3.45;;;;;;;;;;5001525;28;20025;-93
2023/04/26 14:36:17;;;;;;;12.40;3.22;;;;;;;;;;5002317;28;20033;-95
2023/04/26 14:38:49;;;;;;;14.25;2.78;;;;;;;;;;5001467;28;20049;-95
2023/04/26 14:41:18;;;;;;;12.55;2.60;;;;;;;;;;5001216;28;20030;-96
2023/04/26 14:43:47;;;;;;;9.77;2.20;;;;;;;;;;5001736;28;20069;-94
2023/04/26 14:46:16;;;;;;;14.13;2.70;;;;;;;;;;5000871;28;20022;-95
2023/04/26 14:48:59;;;;;;;8.10;2.38;;;;;;;;;;5000816;28;20032;-94
2023/04/26 14:51:29;;;;;;;12.82;3.25;;;;;;;;;;5000747;28;20057;-95
2023/04/26 14:53:58;;;;;;;9.90;2.90;;;;;;;;;;5001164;28;20120;-95